Time;durP1;ratioP1;P1;durP2;ratioP2;P2;SDS_P1;SDS_P2;PMS_P1;PMS_P2;Temp;Humidity;BMP_temperature;BMP_pressure;BME280_temperature;BME280_humidity;BME280_pressure;Samples;Min_cycle;Max_cycle;Signal;HPM_P1;HPM_P2
2021/10/14 00:00:57;;;;;;;10.07;4.13;;;2.40;91.90;;;;;;6280116;22;20267;-71
2021/10/14 00:03:23;;;;;;;7.47;3.78;;;2.30;91.90;;;;;;6280365;22;19996;-71
2021/10/14 00:05:49;;;;;;;10.90;4.05;;;2.20;92.10;;;;;;6253254;22;20011;-71
2021/10/14 00:08:15;;;;;;;8.93;4.18;;;2.10;92.10;;;;;;6280375;22;20050;-69
2021/10/14 00:10:40;;;;;;;10.10;4.80;;;2.10;92.00;;;;;;6280059;22;20008;-70
2021/10/14 00:13:06;;;;;;;6.65;3.67;;;2.10;91.20;;;;;;6279029;22;20031;-70
2021/10/14 00:15:33;;;;;;;8.55;3.83;;;2.10;91.30;;;;;;6279542;22;20000;-71
2021/10/14 00:17:59;;;;;;;9.27;3.63;;;2.20;91.20;;;;;;6280518;22;20000;-69
2021/10/14 00:20:25;;;;;;;8.57;3.80;;;2.20;91.10;;;;;;6280071;22;20081;-71
2021/10/14 00:22:51;;;;;;;8.73;3.78;;;2.20;91.20;;;;;;6280247;22;20450;-71
2021/10/14 00:25:19;;;;;;;7.43;3.30;;;2.20;91.60;;;;;;6280295;22;20004;-70
2021/10/14 00:27:45;;;;;;;7.35;3.60;;;2.00;91.80;;;;;;6278863;22;20004;-70
2021/10/14 00:30:12;;;;;;;6.75;3.85;;;2.00;91.30;;;;;;6279991;22;20000;-70
2021/10/14 00:32:38;;;;;;;7.15;3.70;;;2.00;91.20;;;;;;6280068;22;20007;-70
2021/10/14 00:35:04;;;;;;;7.32;3.58;;;2.00;91.40;;;;;;6279791;22;19996;-69
2021/10/14 00:37:29;;;;;;;6.15;3.58;;;2.00;91.20;;;;;;6279384;22;20059;-70
2021/10/14 00:39:56;;;;;;;8.13;3.42;;;1.90;92.20;;;;;;6279457;22;20004;-72
2021/10/14 00:42:21;;;;;;;7.65;3.97;;;1.70;92.30;;;;;;6278354;22;20023;-69
2021/10/14 00:44:52;;;;;;;5.85;3.60;;;1.60;92.60;;;;;;6279559;22;19999;-69
2021/10/14 00:47:25;;;;;;;8.75;4.03;;;1.60;91.80;;;;;;6279438;22;20320;-70
2021/10/14 00:49:55;;;;;;;6.80;3.60;;;1.90;89.60;;;;;;6279805;22;20000;-69
2021/10/14 00:52:21;;;;;;;8.07;3.95;;;2.10;90.10;;;;;;6279513;22;20222;-70
2021/10/14 00:54:50;;;;;;;11.73;4.38;;;2.10;90.90;;;;;;6279168;22;20082;-68
2021/10/14 00:57:16;;;;;;;9.00;3.58;;;2.10;90.70;;;;;;6277903;22;20042;-69
2021/10/14 00:59:43;;;;;;;9.10;4.00;;;2.10;91.30;;;;;;6279679;22;20000;-69
2021/10/14 01:02:09;;;;;;;6.93;3.67;;;2.10;91.70;;;;;;6279129;22;20384;-71
2021/10/14 01:04:34;;;;;;;12.52;4.22;;;2.00;91.60;;;;;;6279284;22;20004;-68
2021/10/14 01:07:00;;;;;;;7.90;4.28;;;2.00;91.10;;;;;;6279613;22;20003;-71
2021/10/14 01:09:26;;;;;;;7.53;4.18;;;2.10;91.00;;;;;;6279698;22;19996;-70
2021/10/14 01:11:52;;;;;;;11.73;3.90;;;2.10;91.20;;;;;;6250990;22;20230;-71
2021/10/14 01:14:18;;;;;;;6.63;3.60;;;2.00;91.30;;;;;;6279624;22;20026;-71
2021/10/14 01:16:48;;;;;;;8.73;4.65;;;2.00;91.20;;;;;;6252123;22;20003;-70
2021/10/14 01:19:15;;;;;;;7.47;3.63;;;2.10;90.90;;;;;;6253002;22;20000;-71
2021/10/14 01:21:42;;;;;;;8.18;3.95;;;2.10;91.30;;;;;;6278913;22;20369;-70
2021/10/14 01:24:08;;;;;;;7.10;3.95;;;2.00;91.30;;;;;;6251993;22;20340;-71
2021/10/14 01:26:34;;;;;;;8.48;3.90;;;2.00;91.30;;;;;;6278099;22;20684;-70
2021/10/14 01:29:05;;;;;;;7.53;3.88;;;2.00;91.30;;;;;;6278858;22;20007;-71
2021/10/14 01:31:31;;;;;;;10.02;4.50;;;2.10;90.50;;;;;;6279400;22;20332;-71
2021/10/14 01:33:57;;;;;;;13.05;4.07;;;2.10;91.10;;;;;;6279325;22;19995;-71
2021/10/14 01:36:23;;;;;;;8.85;4.40;;;2.00;91.50;;;;;;6279330;22;19995;-69
2021/10/14 01:38:50;;;;;;;12.88;4.38;;;2.00;91.50;;;;;;6279358;22;20061;-72
2021/10/14 01:41:15;;;;;;;10.73;4.68;;;2.00;91.00;;;;;;6251025;22;20576;-70
2021/10/14 01:43:41;;;;;;;8.13;3.95;;;2.00;90.80;;;;;;6278948;22;20076;-70
2021/10/14 01:46:08;;;;;;;9.73;3.80;;;2.00;90.60;;;;;;6278985;22;20011;-71
2021/10/14 01:48:34;;;;;;;10.13;4.20;;;2.10;90.50;;;;;;6251663;22;20476;-71
2021/10/14 01:51:00;;;;;;;9.93;4.65;;;2.10;90.60;;;;;;6279089;22;19999;-70
2021/10/14 01:53:27;;;;;;;9.40;4.40;;;2.10;91.00;;;;;;6252058;22;20535;-69
2021/10/14 01:55:53;;;;;;;10.18;4.55;;;2.10;90.70;;;;;;6278499;22;20059;-71
2021/10/14 01:58:19;;;;;;;8.70;4.07;;;2.10;90.80;;;;;;6277715;22;20007;-69
2021/10/14 02:00:49;;;;;;;9.45;4.25;;;2.00;92.30;;;;;;6278547;22;20070;-69
2021/10/14 02:03:18;;;;;;;9.10;4.25;;;1.70;92.50;;;;;;6279279;22;20377;-70
2021/10/14 02:05:44;;;;;;;8.77;4.68;;;1.70;91.40;;;;;;6279107;22;20004;-70
2021/10/14 02:08:10;;;;;;;8.70;4.63;;;1.80;90.60;;;;;;6279006;22;20004;-71
2021/10/14 02:10:36;;;;;;;9.98;5.03;;;1.80;90.70;;;;;;6279274;22;19996;-69
2021/10/14 02:13:03;;;;;;;9.73;4.15;;;1.80;90.80;;;;;;6277591;22;20007;-70
2021/10/14 02:15:29;;;;;;;9.65;4.50;;;1.70;91.70;;;;;;6278958;22;20000;-70
2021/10/14 02:17:57;;;;;;;9.25;4.07;;;1.60;91.90;;;;;;6278953;22;20000;-70
2021/10/14 02:20:23;;;;;;;9.93;4.97;;;1.60;90.90;;;;;;6279482;22;20266;-70
2021/10/14 02:22:49;;;;;;;8.40;4.22;;;1.70;91.00;;;;;;6278763;22;20000;-69
2021/10/14 02:25:16;;;;;;;11.35;4.68;;;1.70;91.20;;;;;;6251396;22;20296;-71
2021/10/14 02:27:42;;;;;;;10.30;4.43;;;1.60;90.80;;;;;;6277901;22;20008;-69
2021/10/14 02:30:09;;;;;;;10.65;4.63;;;1.70;90.80;;;;;;6279185;22;20314;-71
2021/10/14 02:32:35;;;;;;;11.48;4.88;;;1.70;90.40;;;;;;6279005;22;20002;-70
2021/10/14 02:35:01;;;;;;;12.85;5.22;;;1.70;90.40;;;;;;6279287;22;20420;-70
2021/10/14 02:37:28;;;;;;;13.82;5.38;;;1.70;90.30;;;;;;6252447;22;20031;-69
2021/10/14 02:39:53;;;;;;;11.60;4.70;;;1.80;90.00;;;;;;6281398;22;20023;-69
2021/10/14 02:42:20;;;;;;;10.57;4.80;;;1.80;90.10;;;;;;6278999;22;20011;-69
2021/10/14 02:44:45;;;;;;;8.88;5.15;;;1.90;89.90;;;;;;6281280;22;20006;-70
2021/10/14 02:47:11;;;;;;;14.25;4.80;;;1.90;90.10;;;;;;6281235;22;20286;-71
2021/10/14 02:49:37;;;;;;;11.93;4.75;;;1.90;90.50;;;;;;6280999;22;20000;-70
2021/10/14 02:52:03;;;;;;;9.30;4.57;;;1.70;91.30;;;;;;6280553;22;20031;-71
2021/10/14 02:54:29;;;;;;;13.73;4.55;;;1.60;91.10;;;;;;6281214;22;20004;-70
2021/10/14 02:56:54;;;;;;;11.50;4.10;;;1.70;90.20;;;;;;6279117;22;20372;-71
2021/10/14 02:59:20;;;;;;;11.18;4.75;;;1.80;89.80;;;;;;6280969;22;20000;-70
2021/10/14 03:01:46;;;;;;;9.30;4.10;;;1.80;90.10;;;;;;6280789;22;20034;-71
2021/10/14 03:04:11;;;;;;;15.30;4.55;;;1.90;90.10;;;;;;6280747;22;20014;-71
2021/10/14 03:06:37;;;;;;;10.60;4.78;;;1.90;90.10;;;;;;6281050;22;20000;-69
2021/10/14 03:09:03;;;;;;;16.15;5.40;;;1.90;89.90;;;;;;6281089;22;20007;-71
2021/10/14 03:11:29;;;;;;;10.88;4.90;;;1.90;90.20;;;;;;6279138;22;19996;-70
2021/10/14 03:13:55;;;;;;;10.20;5.15;;;1.90;89.60;;;;;;6281037;22;20003;-70
2021/10/14 03:16:20;;;;;;;10.60;4.57;;;2.00;90.00;;;;;;6280525;22;20003;-70
2021/10/14 03:18:46;;;;;;;9.73;4.75;;;2.00;89.90;;;;;;6280791;22;20000;-70
2021/10/14 03:21:12;;;;;;;10.00;4.97;;;2.00;90.10;;;;;;6280779;22;19999;-71
2021/10/14 03:23:38;;;;;;;13.98;5.30;;;2.00;90.00;;;;;;6253033;22;20007;-70
2021/10/14 03:26:06;;;;;;;11.73;5.30;;;2.00;89.90;;;;;;6280490;22;20353;-70
2021/10/14 03:28:32;;;;;;;10.23;4.95;;;2.00;90.10;;;;;;6279249;22;20261;-70
2021/10/14 03:30:57;;;;;;;12.05;4.82;;;2.00;89.80;;;;;;6280230;22;20083;-71
2021/10/14 03:33:24;;;;;;;10.07;4.53;;;2.10;89.50;;;;;;6280910;22;20002;-69
2021/10/14 03:35:49;;;;;;;12.35;4.97;;;2.00;90.60;;;;;;6280931;22;20000;-70
2021/10/14 03:38:15;;;;;;;10.93;4.90;;;2.00;90.00;;;;;;6280255;22;20082;-70
2021/10/14 03:40:41;;;;;;;12.15;4.95;;;1.90;90.30;;;;;;6280029;22;20026;-69
2021/10/14 03:43:07;;;;;;;9.80;4.57;;;1.90;89.80;;;;;;6278799;22;20234;-71
2021/10/14 03:45:33;;;;;;;9.85;5.00;;;1.90;90.00;;;;;;6253563;22;20391;-70
2021/10/14 03:47:58;;;;;;;13.25;5.05;;;1.90;90.30;;;;;;6253676;22;20014;-70
2021/10/14 03:50:24;;;;;;;9.63;5.05;;;1.90;89.90;;;;;;6280045;22;20011;-70
2021/10/14 03:52:50;;;;;;;9.75;4.78;;;1.90;90.00;;;;;;6280114;22;20450;-69
2021/10/14 03:55:15;;;;;;;14.32;5.22;;;1.90;90.20;;;;;;6280262;22;20046;-70
2021/10/14 03:57:41;;;;;;;12.77;5.95;;;1.90;90.10;;;;;;6278426;22;20003;-69
2021/10/14 04:00:08;;;;;;;12.13;5.05;;;1.90;90.10;;;;;;6280218;22;20023;-68
2021/10/14 04:02:34;;;;;;;11.15;5.13;;;2.00;89.90;;;;;;6279983;22;19999;-71
2021/10/14 04:05:00;;;;;;;10.50;4.50;;;1.90;90.50;;;;;;6280204;22;20000;-71
2021/10/14 04:07:28;;;;;;;12.35;4.90;;;1.70;91.50;;;;;;6252974;22;20387;-71
2021/10/14 04:09:54;;;;;;;8.80;4.40;;;1.60;91.60;;;;;;6279857;22;20003;-72
2021/10/14 04:12:20;;;;;;;18.60;5.35;;;1.60;90.00;;;;;;6278523;22;20003;-72
2021/10/14 04:14:46;;;;;;;10.30;4.68;;;1.70;89.70;;;;;;6279889;22;20027;-71
2021/10/14 04:17:11;;;;;;;11.38;5.18;;;1.80;89.70;;;;;;6280359;22;19999;-70
2021/10/14 04:19:37;;;;;;;10.80;5.18;;;1.80;90.00;;;;;;6279694;22;20027;-73
2021/10/14 04:22:04;;;;;;;13.73;5.40;;;1.80;89.90;;;;;;6279949;22;20004;-71
2021/10/14 04:24:30;;;;;;;14.02;5.65;;;1.80;89.70;;;;;;6279865;22;20369;-70
2021/10/14 04:26:56;;;;;;;10.68;5.25;;;1.90;89.40;;;;;;6278666;22;20057;-71
2021/10/14 04:29:22;;;;;;;8.95;5.32;;;1.90;89.80;;;;;;6253717;22;20444;-71
2021/10/14 04:31:48;;;;;;;10.60;5.40;;;1.90;89.70;;;;;;6252692;22;20042;-71
2021/10/14 04:34:15;;;;;;;11.07;5.63;;;1.90;89.60;;;;;;6279518;22;19996;-71
2021/10/14 04:36:49;;;;;;;10.85;5.53;;;1.90;89.60;;;;;;6279387;22;20369;-71
2021/10/14 04:39:15;;;;;;;16.27;5.95;;;2.00;89.70;;;;;;6280118;22;20002;-70
2021/10/14 04:41:43;;;;;;;12.50;6.03;;;1.90;89.80;;;;;;6277829;22;20110;-71
2021/10/14 04:44:08;;;;;;;11.68;5.20;;;1.90;90.00;;;;;;6279921;22;19999;-71
2021/10/14 04:46:34;;;;;;;11.60;5.82;;;1.80;90.60;;;;;;6252640;22;20308;-71
2021/10/14 04:49:03;;;;;;;8.48;4.60;;;1.70;90.80;;;;;;6279444;22;20003;-69
2021/10/14 04:51:29;;;;;;;10.40;5.45;;;1.60;90.70;;;;;;6278477;22;20039;-71
2021/10/14 04:53:54;;;;;;;14.32;5.75;;;1.60;89.70;;;;;;6278231;22;20026;-70
2021/10/14 04:56:20;;;;;;;11.80;5.47;;;1.80;89.20;;;;;;6278335;22;20004;-70
2021/10/14 04:58:46;;;;;;;16.20;5.85;;;2.00;88.90;;;;;;6252162;22;19999;-69
2021/10/14 05:01:11;;;;;;;11.02;6.68;;;2.10;89.00;;;;;;6279679;22;20018;-70
2021/10/14 05:03:40;;;;;;;12.90;6.30;;;2.10;89.70;;;;;;6279867;22;20080;-70
2021/10/14 05:06:05;;;;;;;11.75;5.32;;;2.10;89.90;;;;;;6279816;22;20067;-70
2021/10/14 05:08:31;;;;;;;14.73;5.88;;;2.10;89.30;;;;;;6253377;22;20042;-71
2021/10/14 05:10:57;;;;;;;14.20;5.75;;;2.20;89.40;;;;;;6279811;22;20004;-69
2021/10/14 05:13:22;;;;;;;16.50;6.13;;;2.20;89.50;;;;;;6278631;22;20346;-70
2021/10/14 05:15:51;;;;;;;15.32;5.88;;;2.10;90.70;;;;;;6280299;22;20002;-70
2021/10/14 05:18:16;;;;;;;18.17;5.05;;;1.90;91.80;;;;;;6280365;22;20381;-70
2021/10/14 05:20:42;;;;;;;9.48;4.97;;;1.70;91.80;;;;;;6280102;22;20004;-70
2021/10/14 05:23:08;;;;;;;14.48;4.93;;;1.40;92.40;;;;;;6280244;22;20008;-70
2021/10/14 05:25:33;;;;;;;9.90;4.57;;;1.30;91.90;;;;;;6280340;22;20003;-69
2021/10/14 05:27:59;;;;;;;10.50;5.47;;;1.10;91.90;;;;;;6278664;22;19996;-70
2021/10/14 05:30:25;;;;;;;11.20;5.40;;;1.10;91.00;;;;;;6280211;22;20069;-71
2021/10/14 05:32:51;;;;;;;10.30;4.85;;;1.10;90.30;;;;;;6280174;22;20315;-71
2021/10/14 05:35:20;;;;;;;13.77;5.45;;;1.20;89.80;;;;;;6280040;22;19999;-70
2021/10/14 05:37:45;;;;;;;11.43;5.43;;;1.30;89.80;;;;;;6280335;22;20265;-69
2021/10/14 05:40:11;;;;;;;11.52;5.00;;;1.30;89.90;;;;;;6279809;22;20007;-69
2021/10/14 05:42:37;;;;;;;14.82;5.40;;;1.30;91.10;;;;;;6278760;22;19996;-70
2021/10/14 05:45:04;;;;;;;17.60;6.20;;;1.10;91.30;;;;;;6280082;22;20008;-70
2021/10/14 05:47:29;;;;;;;13.40;6.15;;;1.10;90.60;;;;;;6280094;22;20027;-71
2021/10/14 05:49:55;;;;;;;15.18;6.32;;;1.10;89.90;;;;;;6279917;22;20365;-70
2021/10/14 05:52:21;;;;;;;12.48;6.07;;;1.20;89.70;;;;;;6279636;22;20078;-71
2021/10/14 05:54:46;;;;;;;14.25;5.97;;;1.30;89.60;;;;;;6280020;22;20003;-70
2021/10/14 05:57:12;;;;;;;19.38;7.43;;;1.30;89.70;;;;;;6278504;22;19999;-69
2021/10/14 05:59:40;;;;;;;15.20;7.38;;;1.40;89.40;;;;;;6253283;22;20042;-69
2021/10/14 06:02:06;;;;;;;15.02;6.85;;;1.60;88.90;;;;;;6279907;22;20000;-69
2021/10/14 06:04:34;;;;;;;13.95;7.32;;;1.60;89.30;;;;;;6279888;22;20324;-70
2021/10/14 06:07:00;;;;;;;13.88;6.65;;;1.70;89.40;;;;;;6280150;22;20027;-70
2021/10/14 06:09:26;;;;;;;19.67;6.70;;;1.70;89.30;;;;;;6280303;22;20262;-71
2021/10/14 06:11:51;;;;;;;25.60;8.52;;;1.80;89.40;;;;;;6278288;22;20004;-70
2021/10/14 06:14:17;;;;;;;18.40;9.50;;;1.90;89.20;;;;;;6281171;22;20003;-70
2021/10/14 06:16:43;;;;;;;20.02;10.27;;;1.90;89.40;;;;;;6281847;22;20426;-70
2021/10/14 06:19:08;;;;;;;23.65;9.82;;;1.90;89.40;;;;;;6255226;22;20360;-70
2021/10/14 06:21:34;;;;;;;27.70;10.32;;;2.00;89.10;;;;;;6281643;22;20353;-71
2021/10/14 06:24:00;;;;;;;21.55;10.27;;;2.00;89.00;;;;;;6281775;22;20008;-70
2021/10/14 06:26:25;;;;;;;21.25;10.57;;;2.00;89.50;;;;;;6280940;22;20000;-70
2021/10/14 06:28:51;;;;;;;27.05;13.93;;;2.10;89.20;;;;;;6281329;22;20361;-71
2021/10/14 06:31:17;;;;;;;26.15;13.25;;;2.20;89.00;;;;;;6281664;22;20027;-71
2021/10/14 06:33:42;;;;;;;17.63;9.02;;;2.30;89.10;;;;;;6281610;22;20049;-70
2021/10/14 06:36:08;;;;;;;17.27;7.90;;;2.40;88.90;;;;;;6282137;22;20417;-70
2021/10/14 06:38:34;;;;;;;13.35;7.22;;;2.40;89.40;;;;;;6281671;22;20030;-71
2021/10/14 06:41:02;;;;;;;13.27;6.10;;;2.50;89.60;;;;;;6281059;22;20094;-71
2021/10/14 06:43:28;;;;;;;13.23;6.45;;;2.40;89.80;;;;;;6253365;22;20385;-70
2021/10/14 06:45:56;;;;;;;12.70;5.85;;;2.50;89.30;;;;;;6281510;22;20010;-70
2021/10/14 06:48:25;;;;;;;12.77;5.95;;;2.60;88.70;;;;;;6281653;22;20000;-70
2021/10/14 06:50:54;;;;;;;10.30;5.18;;;2.70;88.80;;;;;;6281390;22;20029;-70
2021/10/14 06:53:20;;;;;;;12.20;5.90;;;2.80;88.90;;;;;;6281540;22;20000;-69
2021/10/14 06:55:49;;;;;;;13.95;6.28;;;2.90;89.10;;;;;;6281576;22;20034;-69
2021/10/14 06:58:15;;;;;;;28.25;13.20;;;3.00;89.10;;;;;;6253235;22;19996;-72
2021/10/14 07:00:44;;;;;;;23.13;11.15;;;3.20;88.80;;;;;;6281064;22;20006;-72
2021/10/14 07:03:10;;;;;;;13.85;6.70;;;3.40;88.80;;;;;;6281348;22;19999;-72
2021/10/14 07:05:36;;;;;;;14.25;8.18;;;3.50;88.80;;;;;;6280973;22;20194;-72
2021/10/14 07:08:04;;;;;;;14.57;7.10;;;3.70;88.90;;;;;;6281571;22;20099;-72
2021/10/14 07:10:30;;;;;;;13.02;6.50;;;3.80;89.70;;;;;;6281314;22;20015;-72
2021/10/14 07:12:56;;;;;;;12.07;5.65;;;3.80;90.00;;;;;;6279610;22;20000;-72
2021/10/14 07:15:22;;;;;;;13.20;6.72;;;3.80;90.80;;;;;;6254404;22;20266;-72
2021/10/14 07:17:48;;;;;;;19.20;8.50;;;3.90;90.60;;;;;;6281115;22;20445;-72
2021/10/14 07:20:16;;;;;;;14.90;7.45;;;4.00;90.60;;;;;;6280759;22;20078;-72
2021/10/14 07:22:42;;;;;;;19.73;8.98;;;4.10;90.90;;;;;;6281096;22;20023;-71
2021/10/14 07:25:08;;;;;;;14.30;7.47;;;4.10;91.40;;;;;;6281131;22;20002;-71
2021/10/14 07:27:33;;;;;;;13.32;7.85;;;4.30;91.10;;;;;;6279441;22;20003;-72
2021/10/14 07:30:03;;;;;;;18.95;8.73;;;4.50;91.30;;;;;;6281120;22;20000;-72
2021/10/14 07:32:28;;;;;;;22.55;11.63;;;4.60;91.70;;;;;;6280588;22;20258;-72
2021/10/14 07:34:54;;;;;;;19.20;8.80;;;4.80;91.90;;;;;;6281286;22;20000;-72
2021/10/14 07:37:22;;;;;;;11.00;6.72;;;4.80;92.60;;;;;;6281021;22;19999;-72
2021/10/14 07:39:48;;;;;;;14.55;6.93;;;5.00;92.20;;;;;;6281227;22;20003;-72
2021/10/14 07:42:14;;;;;;;13.32;6.88;;;5.20;92.80;;;;;;6278825;22;20130;-71
2021/10/14 07:44:40;;;;;;;11.00;6.18;;;5.40;92.80;;;;;;6254005;22;20015;-71
2021/10/14 07:47:06;;;;;;;10.23;5.47;;;5.50;93.70;;;;;;6281028;22;20253;-71
2021/10/14 07:49:32;;;;;;;13.40;5.88;;;5.70;93.80;;;;;;6281032;22;20087;-72
2021/10/14 07:51:58;;;;;;;14.13;5.15;;;5.80;93.40;;;;;;6253898;22;20007;-71
2021/10/14 07:54:26;;;;;;;11.52;4.72;;;5.80;94.80;;;;;;6280711;22;20003;-70
2021/10/14 07:56:52;;;;;;;11.75;4.80;;;5.90;94.70;;;;;;6279596;22;20075;-71
2021/10/14 07:59:18;;;;;;;10.93;6.40;;;6.20;93.20;;;;;;6280964;22;20023;-72
2021/10/14 08:01:43;;;;;;;12.77;4.93;;;7.20;87.20;;;;;;6253455;22;20011;-72
2021/10/14 08:04:09;;;;;;;7.55;3.70;;;8.40;87.10;;;;;;6253485;22;20015;-71
2021/10/14 08:06:35;;;;;;;6.82;3.70;;;8.80;90.30;;;;;;6280472;22;20515;-70
2021/10/14 08:09:05;;;;;;;6.85;3.15;;;9.10;95.60;;;;;;6280947;22;20003;-70
2021/10/14 08:11:31;;;;;;;7.90;3.25;;;9.80;95.70;;;;;;6277894;22;20012;-71
2021/10/14 08:13:59;;;;;;;7.65;2.65;;;11.70;91.50;;;;;;6280560;22;20256;-70
2021/10/14 08:16:26;;;;;;;5.65;2.65;;;12.70;98.00;;;;;;6280752;22;19996;-71
2021/10/14 08:18:51;;;;;;;7.32;2.33;;;13.10;98.00;;;;;;6280758;22;20030;-71
2021/10/14 08:21:17;;;;;;;9.52;2.75;;;13.20;92.00;;;;;;6280727;22;19999;-71
2021/10/14 08:23:43;;;;;;;7.72;3.67;;;12.50;90.90;;;;;;6280738;22;20010;-71
2021/10/14 08:26:09;;;;;;;8.55;3.65;;;12.00;92.10;;;;;;6280595;22;20004;-71
2021/10/14 08:28:37;;;;;;;9.77;4.47;;;12.00;92.10;;;;;;6279048;22;20290;-72
2021/10/14 08:31:02;;;;;;;7.47;2.60;;;12.20;88.90;;;;;;6280532;22;20083;-72
2021/10/14 08:33:28;;;;;;;6.85;3.08;;;12.40;89.00;;;;;;6280575;22;20327;-71
2021/10/14 08:35:54;;;;;;;7.07;3.20;;;13.10;87.40;;;;;;6280429;22;20000;-72
2021/10/14 08:38:19;;;;;;;8.15;4.60;;;13.80;84.50;;;;;;6280572;22;20032;-71
2021/10/14 08:40:50;;;;;;;14.10;5.30;;;14.50;82.50;;;;;;6280513;22;20018;-70
2021/10/14 08:43:18;;;;;;;20.70;7.68;;;15.00;79.80;;;;;;6278797;22;20015;-71
2021/10/14 08:45:46;;;;;;;6.90;2.72;;;15.10;77.00;;;;;;6280533;22;19995;-71
2021/10/14 08:48:12;;;;;;;5.75;2.58;;;15.10;79.70;;;;;;6280570;22;20000;-70
2021/10/14 08:50:40;;;;;;;6.95;2.95;;;16.10;78.50;;;;;;6280211;22;20035;-72
2021/10/14 08:53:06;;;;;;;5.28;1.90;;;17.30;74.40;;;;;;6280485;22;20003;-71
2021/10/14 08:55:37;;;;;;;6.00;1.90;;;17.60;70.20;;;;;;6280722;22;20000;-71
2021/10/14 08:58:07;;;;;;;8.85;2.53;;;17.00;68.30;;;;;;6278874;22;20015;-71
2021/10/14 09:00:43;;;;;;;5.05;2.40;;;15.20;70.60;;;;;;6280258;22;20000;-70
2021/10/14 09:03:31;;;;;;;5.72;2.17;;;13.80;74.80;;;;;;6279974;22;20030;-71
2021/10/14 09:05:58;;;;;;;7.13;2.67;;;13.10;76.60;;;;;;6254210;22;20007;-70
2021/10/14 09:08:35;;;;;;;6.50;2.80;;;12.70;79.40;;;;;;6280104;22;20031;-71
2021/10/14 09:11:14;;;;;;;8.88;3.13;;;13.20;79.40;;;;;;6280024;22;20075;-71
2021/10/14 09:14:08;;;;;;;8.73;2.92;;;14.10;76.80;;;;;;6278370;22;20117;-71
2021/10/14 09:16:39;;;;;;;20.53;4.10;;;14.40;76.60;;;;;;6248574;22;20038;-72
2021/10/14 09:19:17;;;;;;;9.82;3.30;;;14.80;75.70;;;;;;6280294;22;20233;-70
2021/10/14 09:22:00;;;;;;;6.38;3.10;;;15.10;74.60;;;;;;6280193;22;20273;-72
2021/10/14 09:24:35;;;;;;;7.55;3.22;;;15.20;73.10;;;;;;6280245;22;20314;-71
2021/10/14 09:27:09;;;;;;;6.10;2.35;;;15.10;73.30;;;;;;6278149;22;20003;-70
2021/10/14 09:29:38;;;;;;;6.75;3.13;;;15.20;71.70;;;;;;6280347;22;20270;-69
2021/10/14 09:32:03;;;;;;;5.68;2.75;;;15.00;72.80;;;;;;6279951;22;20131;-71
2021/10/14 09:34:46;;;;;;;7.93;3.55;;;15.40;73.70;;;;;;6280234;22;20020;-71
2021/10/14 09:37:17;;;;;;;10.30;3.55;;;15.80;72.20;;;;;;6280632;22;20003;-70
2021/10/14 09:40:00;;;;;;;12.77;6.03;;;15.60;71.40;;;;;;6279635;22;20003;-70
2021/10/14 09:42:52;;;;;;;18.50;9.25;;;16.10;71.40;;;;;;6278547;22;20008;-70
2021/10/14 09:45:27;;;;;;;7.30;3.28;;;15.90;70.20;;;;;;6253236;22;20003;-69
2021/10/14 09:48:08;;;;;;;7.38;2.75;;;16.30;69.60;;;;;;6281546;22;20003;-70
2021/10/14 09:50:50;;;;;;;4.97;2.47;;;16.10;70.00;;;;;;6282188;22;20010;-70
2021/10/14 09:53:22;;;;;;;6.07;2.50;;;15.70;70.90;;;;;;6254993;22;20010;-72
2021/10/14 09:55:52;;;;;;;7.43;1.95;;;16.00;69.60;;;;;;6282143;22;20048;-72
2021/10/14 09:58:18;;;;;;;5.13;1.88;;;16.10;68.00;;;;;;6280538;22;19995;-71
2021/10/14 10:00:45;;;;;;;26.48;4.47;;;16.20;68.20;;;;;;6281474;22;20031;-71
2021/10/14 10:03:15;;;;;;;22.25;3.58;;;15.80;68.30;;;;;;6281351;22;20015;-71
2021/10/14 10:05:45;;;;;;;5.38;1.88;;;15.60;69.60;;;;;;6282081;22;20004;-71
2021/10/14 10:08:19;;;;;;;5.38;1.80;;;15.80;68.90;;;;;;6255200;22;20030;-70
2021/10/14 10:10:45;;;;;;;;;;;15.90;66.50;;;;;;6281939;22;19999;-72
2021/10/14 10:13:12;;;;;;;4.60;1.77;;;15.70;66.80;;;;;;6280291;22;19899;-71
2021/10/14 10:15:46;;;;;;;5.22;1.83;;;15.80;66.30;;;;;;6282711;22;20046;-72
2021/10/14 10:18:27;;;;;;;4.15;1.52;;;16.10;67.60;;;;;;6255238;22;20427;-71
2021/10/14 10:20:58;;;;;;;3.75;1.60;;;16.00;67.00;;;;;;6282032;22;19999;-71
2021/10/14 10:23:42;;;;;;;4.22;1.77;;;16.10;67.00;;;;;;6254788;22;20285;-71
2021/10/14 10:26:36;;;;;;;4.68;1.98;;;16.00;65.20;;;;;;6281952;22;19999;-71
2021/10/14 10:29:19;;;;;;;5.05;2.20;;;15.90;65.00;;;;;;6281986;22;20361;-71
2021/10/14 10:31:57;;;;;;;10.10;4.10;;;15.80;65.30;;;;;;6281697;22;19999;-70
2021/10/14 10:34:37;;;;;;;4.80;2.13;;;15.70;65.30;;;;;;6254308;22;20343;-71
2021/10/14 10:37:20;;;;;;;4.60;1.80;;;15.60;65.90;;;;;;6280128;22;19995;-71
2021/10/14 10:39:49;;;;;;;5.45;2.10;;;15.20;66.40;;;;;;6281685;22;20007;-70
2021/10/14 10:42:24;;;;;;;4.05;1.63;;;15.10;67.60;;;;;;6252521;22;20015;-70
2021/10/14 10:44:50;;;;;;;5.05;2.00;;;15.70;67.90;;;;;;6281258;22;20065;-70
2021/10/14 10:47:38;;;;;;;3.72;1.73;;;16.00;64.20;;;;;;6281346;22;20003;-70
2021/10/14 10:50:06;;;;;;;7.40;2.20;;;16.80;64.10;;;;;;6281312;22;20066;-71
2021/10/14 10:52:35;;;;;;;4.25;1.80;;;17.00;62.80;;;;;;6281528;22;20352;-71
2021/10/14 10:55:11;;;;;;;4.18;1.90;;;17.00;63.40;;;;;;6281037;22;20004;-71
2021/10/14 10:57:51;;;;;;;4.03;1.70;;;17.10;63.30;;;;;;6280234;22;20375;-72
2021/10/14 11:00:18;;;;;;;3.60;1.80;;;17.20;60.50;;;;;;6281029;22;20003;-72
2021/10/14 11:02:44;;;;;;;4.50;2.05;;;17.30;62.80;;;;;;6280342;22;20023;-70
2021/10/14 11:05:11;;;;;;;4.22;2.08;;;17.50;62.50;;;;;;6280177;22;19999;-71
2021/10/14 11:07:37;;;;;;;4.15;2.05;;;17.70;61.40;;;;;;6280503;22;20002;-70
2021/10/14 11:10:04;;;;;;;8.52;3.58;;;18.00;60.90;;;;;;6278933;22;20004;-69
2021/10/14 11:12:30;;;;;;;5.05;2.45;;;17.50;62.40;;;;;;6279651;22;20034;-70
2021/10/14 11:14:56;;;;;;;3.92;1.63;;;17.40;61.80;;;;;;6281121;22;19996;-70
2021/10/14 11:17:25;;;;;;;6.20;2.20;;;17.10;61.80;;;;;;6281562;22;20049;-70
2021/10/14 11:20:07;;;;;;;3.83;1.58;;;17.20;63.60;;;;;;6280978;22;20053;-70
2021/10/14 11:22:33;;;;;;;4.15;1.70;;;17.40;61.70;;;;;;6280953;22;20039;-70
2021/10/14 11:25:03;;;;;;;3.72;1.83;;;17.60;60.50;;;;;;6280336;22;19996;-70
2021/10/14 11:27:29;;;;;;;38.40;5.28;;;17.80;60.60;;;;;;6279093;22;20003;-70
2021/10/14 11:30:18;;;;;;;5.35;2.28;;;17.70;59.90;;;;;;6281314;22;20053;-70
2021/10/14 11:32:53;;;;;;;5.55;1.60;;;17.70;59.20;;;;;;6281082;22;20361;-70
2021/10/14 11:35:19;;;;;;;4.90;2.17;;;18.00;60.30;;;;;;6279647;22;19996;-71
2021/10/14 11:37:45;;;;;;;4.68;1.70;;;17.80;58.50;;;;;;6280570;22;20088;-70
2021/10/14 11:40:11;;;;;;;4.03;1.58;;;17.70;57.20;;;;;;6281197;22;19996;-71
2021/10/14 11:42:36;;;;;;;3.38;1.67;;;18.00;58.40;;;;;;6278536;22;20027;-70
2021/10/14 11:45:02;;;;;;;4.10;1.60;;;18.20;58.40;;;;;;6279750;22;20026;-70
2021/10/14 11:47:28;;;;;;;5.28;2.10;;;18.20;55.60;;;;;;6253158;22;20007;-70
2021/10/14 11:50:03;;;;;;;5.65;1.90;;;17.30;59.90;;;;;;6280391;22;20004;-70
2021/10/14 11:52:29;;;;;;;4.82;1.90;;;17.00;61.00;;;;;;6279128;22;19996;-68
2021/10/14 11:55:01;;;;;;;5.28;2.20;;;16.90;61.50;;;;;;6280161;22;20046;-69
2021/10/14 11:57:31;;;;;;;6.13;2.15;;;17.10;60.30;;;;;;6251439;22;20000;-70
2021/10/14 11:59:58;;;;;;;6.20;2.40;;;17.10;61.20;;;;;;6280452;22;20027;-69
2021/10/14 12:02:27;;;;;;;6.80;2.50;;;17.30;60.90;;;;;;6279298;22;20304;-69
2021/10/14 12:04:55;;;;;;;6.10;2.08;;;17.00;60.60;;;;;;6279658;22;20000;-70
2021/10/14 12:07:28;;;;;;;54.17;6.03;;;17.00;60.80;;;;;;6279164;22;20010;-70
2021/10/14 12:09:56;;;;;;;24.87;4.90;;;17.20;62.60;;;;;;6279660;22;19999;-69
2021/10/14 12:12:29;;;;;;;7.32;2.45;;;17.50;63.10;;;;;;6278572;22;20246;-71
2021/10/14 12:14:59;;;;;;;6.85;2.42;;;17.70;61.40;;;;;;6279928;22;19995;-69
2021/10/14 12:17:44;;;;;;;5.55;2.35;;;17.60;60.30;;;;;;6280121;22;19999;-70
2021/10/14 12:20:21;;;;;;;6.03;2.28;;;17.50;62.10;;;;;;6280268;22;20004;-70
2021/10/14 12:22:51;;;;;;;6.25;2.63;;;17.30;61.10;;;;;;6278408;22;20007;-69
2021/10/14 12:25:34;;;;;;;7.75;2.30;;;17.30;61.80;;;;;;6279380;22;20019;-70
2021/10/14 12:28:00;;;;;;;5.95;2.25;;;17.00;61.70;;;;;;6277620;22;20392;-69
2021/10/14 12:30:31;;;;;;;4.82;2.15;;;17.00;62.60;;;;;;6252464;22;20280;-69
2021/10/14 12:33:17;;;;;;;6.65;2.83;;;17.40;63.60;;;;;;6278822;22;20003;-70
2021/10/14 12:35:53;;;;;;;7.82;3.40;;;17.30;62.60;;;;;;6251544;22;20034;-70
2021/10/14 12:38:21;;;;;;;6.28;2.95;;;16.80;61.90;;;;;;6278756;22;19996;-69
2021/10/14 12:41:13;;;;;;;7.00;2.78;;;16.40;63.10;;;;;;6278953;22;20087;-69
2021/10/14 12:43:48;;;;;;;6.90;2.80;;;16.50;63.70;;;;;;6250047;22;20246;-69
2021/10/14 12:46:39;;;;;;;6.75;3.20;;;16.50;65.10;;;;;;6280179;22;20038;-69
2021/10/14 12:49:38;;;;;;;8.20;3.05;;;16.40;63.90;;;;;;6279709;22;20027;-69
2021/10/14 12:51:59;;;;;;;6.63;3.03;;;16.30;64.80;;;;;;6278392;22;20065;-69
2021/10/14 12:54:27;;;;;;;11.52;3.25;;;16.30;65.90;;;;;;6279070;22;19999;-68